createdAt,value
2018-04-19T00:00:11.940Z,21.60
2018-04-19T00:02:41.384Z,21.50
2018-04-19T00:05:10.706Z,21.40
2018-04-19T00:08:28.112Z,21.30
2018-04-19T00:10:58.262Z,21.10
2018-04-19T00:13:27.848Z,21.10
2018-04-19T00:15:57.703Z,21.20
2018-04-19T00:22:00.099Z,21.00
2018-04-19T00:24:29.483Z,21.00
2018-04-19T00:26:59.628Z,20.80
2018-04-19T00:29:29.415Z,20.80
2018-04-19T00:31:58.949Z,20.70
2018-04-19T00:37:49.538Z,20.60
2018-04-19T00:40:18.768Z,20.60
2018-04-19T00:42:47.952Z,20.50
2018-04-19T00:45:17.267Z,20.60
2018-04-19T00:47:46.478Z,20.60
2018-04-19T00:50:15.674Z,20.60
2018-04-19T00:52:56.294Z,20.60
2018-04-19T00:55:25.626Z,20.50
2018-04-19T00:57:54.894Z,20.50
2018-04-19T01:00:24.179Z,20.50
2018-04-19T01:02:53.364Z,20.40
2018-04-19T01:05:23.339Z,20.30
2018-04-19T01:07:52.666Z,20.20
2018-04-19T01:10:22.012Z,20.30
2018-04-19T01:12:52.090Z,20.20
2018-04-19T01:15:21.467Z,20.10
2018-04-19T01:17:50.668Z,20.20
2018-04-19T01:20:20.986Z,20.20
2018-04-19T01:22:50.318Z,20.20
2018-04-19T01:25:20.413Z,20.10
2018-04-19T01:27:49.649Z,20.00
2018-04-19T01:30:19.688Z,20.00
2018-04-19T01:32:48.853Z,20.00
2018-04-19T01:35:19.225Z,20.10
2018-04-19T01:37:48.394Z,20.00
2018-04-19T01:40:17.573Z,20.10
2018-04-19T01:42:46.868Z,20.00
2018-04-19T01:45:16.841Z,20.00
2018-04-19T01:47:46.098Z,19.90
2018-04-19T01:50:15.341Z,19.90
2018-04-19T01:52:44.522Z,19.90
2018-04-19T01:55:14.404Z,19.80
2018-04-19T01:57:43.779Z,19.70
2018-04-19T02:00:12.985Z,19.70
2018-04-19T02:02:42.205Z,19.60
2018-04-19T02:05:12.455Z,19.70
2018-04-19T02:07:41.680Z,19.60
2018-04-19T02:10:11.634Z,19.60
2018-04-19T02:12:41.797Z,19.60
2018-04-19T02:15:11.085Z,19.60
2018-04-19T02:17:45.787Z,19.50
2018-04-19T02:20:15.322Z,19.50
2018-04-19T02:22:49.784Z,19.50
2018-04-19T02:25:25.303Z,19.50
2018-04-19T02:27:54.549Z,19.50
2018-04-19T02:33:55.257Z,19.60
2018-04-19T02:36:25.867Z,19.70
2018-04-19T02:38:55.686Z,19.90
2018-04-19T02:41:25.056Z,20.00
2018-04-19T02:43:54.486Z,20.10
2018-04-19T02:46:23.926Z,20.10
2018-04-19T02:48:53.327Z,20.10
2018-04-19T02:51:22.709Z,20.10
2018-04-19T02:53:52.158Z,20.10
2018-04-19T02:56:22.471Z,20.00
2018-04-19T02:58:51.915Z,20.00
2018-04-19T03:01:21.296Z,20.00
2018-04-19T03:03:50.783Z,20.00
2018-04-19T03:06:21.228Z,19.80
2018-04-19T03:08:50.760Z,19.80
2018-04-19T03:11:20.133Z,19.80
2018-04-19T03:13:50.197Z,19.70
2018-04-19T03:16:20.217Z,19.60
2018-04-19T03:18:49.693Z,19.60
2018-04-19T03:21:19.223Z,19.50
2018-04-19T03:23:48.651Z,19.40
2018-04-19T03:26:18.786Z,19.40
2018-04-19T03:28:48.292Z,19.40
2018-04-19T03:31:17.757Z,19.30
2018-04-19T03:33:47.203Z,19.30
2018-04-19T03:36:16.686Z,19.30
2018-04-19T03:38:50.089Z,19.30
2018-04-19T03:41:19.584Z,19.30
2018-04-19T03:43:49.476Z,19.30
2018-04-19T03:46:20.784Z,19.30
2018-04-19T03:48:50.324Z,19.30
2018-04-19T03:51:19.977Z,19.30
2018-04-19T03:53:49.524Z,19.30
2018-04-19T03:56:18.924Z,19.10
2018-04-19T03:58:48.304Z,19.10
2018-04-19T04:01:18.539Z,19.20
2018-04-19T04:03:47.920Z,19.10
2018-04-19T04:06:17.828Z,19.30
2018-04-19T04:08:47.299Z,19.40
2018-04-19T04:11:16.748Z,19.40
2018-04-19T04:13:46.160Z,19.50
2018-04-19T04:16:26.929Z,19.50
2018-04-19T04:19:07.615Z,19.60
2018-04-19T04:21:48.308Z,19.60
2018-04-19T04:24:17.693Z,19.60
2018-04-19T04:26:47.072Z,19.50
2018-04-19T04:29:16.538Z,19.50
2018-04-19T04:31:47.205Z,19.40
2018-04-19T04:34:17.432Z,19.40
2018-04-19T04:36:47.723Z,19.40
2018-04-19T04:39:17.206Z,19.30
2018-04-19T04:41:46.582Z,19.30
2018-04-19T04:44:16.010Z,19.20
2018-04-19T04:46:45.463Z,19.20
2018-04-19T04:49:14.888Z,19.10
2018-04-19T04:51:44.297Z,19.00
2018-04-19T04:54:13.743Z,18.90
2018-04-19T04:56:43.324Z,18.80
2018-04-19T04:59:12.733Z,18.80
2018-04-19T05:01:42.251Z,18.80
2018-04-19T05:04:11.630Z,18.70
2018-04-19T05:06:41.220Z,18.70
2018-04-19T05:09:10.897Z,18.70
2018-04-19T05:11:41.029Z,18.70
2018-04-19T05:14:10.473Z,18.70
2018-04-19T05:16:40.044Z,18.60
2018-04-19T05:19:10.293Z,18.60
2018-04-19T05:21:39.979Z,18.60
2018-04-19T05:24:09.396Z,18.70
2018-04-19T05:26:38.881Z,18.70
2018-04-19T05:29:09.168Z,18.80
2018-04-19T05:31:38.681Z,18.70
2018-04-19T05:34:08.065Z,18.80
2018-04-19T05:36:38.907Z,18.80
2018-04-19T05:39:08.343Z,18.90
2018-04-19T05:41:37.979Z,18.90
2018-04-19T05:44:07.372Z,18.90
2018-04-19T05:46:36.896Z,19.00
2018-04-19T05:49:06.304Z,19.00
2018-04-19T05:51:35.728Z,18.90
2018-04-19T05:54:05.140Z,18.80
2018-04-19T05:56:34.579Z,18.70
2018-04-19T05:59:04.099Z,18.60
2018-04-19T06:01:35.123Z,18.40
2018-04-19T06:04:04.559Z,18.40
2018-04-19T06:06:34.095Z,18.30
2018-04-19T06:09:03.547Z,18.20
2018-04-19T06:15:04.724Z,18.10
2018-04-19T06:17:34.275Z,18.10
2018-04-19T06:20:03.778Z,18.00
2018-04-19T06:22:33.508Z,18.00
2018-04-19T06:25:03.004Z,18.00
2018-04-19T06:27:32.516Z,18.00
2018-04-19T06:30:02.930Z,18.00
2018-04-19T06:32:32.466Z,18.00
2018-04-19T06:35:01.981Z,18.00
2018-04-19T06:37:31.484Z,17.90
2018-04-19T06:40:00.943Z,17.90
2018-04-19T06:42:30.406Z,17.80
2018-04-19T06:44:59.905Z,17.70
2018-04-19T06:47:29.345Z,17.70
2018-04-19T06:49:58.759Z,17.70
2018-04-19T06:52:28.242Z,17.60
2018-04-19T06:54:57.700Z,17.70
2018-04-19T06:57:27.172Z,17.60
2018-04-19T06:59:56.692Z,17.60
2018-04-19T07:02:26.144Z,17.50
2018-04-19T07:04:55.595Z,17.40
2018-04-19T07:07:25.127Z,17.40
2018-04-19T07:09:54.755Z,17.30
2018-04-19T07:12:24.218Z,17.40
2018-04-19T07:14:53.913Z,17.30
2018-04-19T07:17:23.628Z,17.30
2018-04-19T07:19:53.077Z,17.20
2018-04-19T07:22:22.613Z,17.20
2018-04-19T07:24:52.256Z,17.20
2018-04-19T07:27:21.956Z,17.10
2018-04-19T07:29:51.523Z,17.10
2018-04-19T07:32:20.992Z,17.00
2018-04-19T07:34:51.311Z,17.00
2018-04-19T07:37:20.764Z,17.00
2018-04-19T07:39:50.245Z,17.00
2018-04-19T07:42:19.776Z,17.00
2018-04-19T07:44:49.243Z,17.10
2018-04-19T07:47:18.692Z,17.00
2018-04-19T07:49:48.203Z,17.00
2018-04-19T07:52:17.652Z,16.90
2018-04-19T07:54:47.090Z,16.90
2018-04-19T07:57:16.604Z,16.90
2018-04-19T07:59:46.048Z,16.80
2018-04-19T08:02:15.494Z,16.80
2018-04-19T08:04:45.027Z,16.80
2018-04-19T08:07:14.503Z,16.80
2018-04-19T08:09:43.975Z,16.80
2018-04-19T08:12:14.293Z,16.70
2018-04-19T08:14:43.993Z,16.70
2018-04-19T08:17:13.427Z,16.70
2018-04-19T08:19:42.943Z,16.70
2018-04-19T08:22:12.387Z,16.70
2018-04-19T08:24:41.842Z,16.80
2018-04-19T08:27:11.361Z,16.80
2018-04-19T08:29:40.800Z,16.80
2018-04-19T08:32:10.212Z,16.90
2018-04-19T08:34:39.705Z,16.90
2018-04-19T08:37:09.185Z,16.90
2018-04-19T08:39:39.890Z,16.90
2018-04-19T08:42:09.424Z,17.00
2018-04-19T08:44:38.907Z,17.00
2018-04-19T08:47:08.415Z,17.00
2018-04-19T08:49:37.947Z,17.00
2018-04-19T08:52:07.616Z,17.00
2018-04-19T08:54:37.827Z,16.80
2018-04-19T08:57:07.321Z,16.70
2018-04-19T08:59:36.849Z,16.70
2018-04-19T09:02:07.107Z,16.60
2018-04-19T09:04:36.583Z,16.50
2018-04-19T09:07:06.017Z,16.60
2018-04-19T09:09:35.512Z,16.50
2018-04-19T09:15:35.351Z,16.60
2018-04-19T09:18:04.651Z,16.60
2018-04-19T09:20:33.936Z,16.50
2018-04-19T09:23:03.480Z,16.50
2018-04-19T09:25:32.744Z,16.50
2018-04-19T09:31:22.617Z,16.50
2018-04-19T09:33:51.904Z,16.50
2018-04-19T09:36:21.204Z,16.50
2018-04-19T09:38:51.115Z,16.40
2018-04-19T09:44:42.112Z,16.40
2018-04-19T09:47:11.450Z,16.50
2018-04-19T09:49:41.784Z,16.50
2018-04-19T09:52:11.036Z,16.50
2018-04-19T09:54:40.392Z,16.60
2018-04-19T09:57:09.792Z,16.60
2018-04-19T09:59:39.064Z,16.60
2018-04-19T10:02:08.572Z,16.70
2018-04-19T10:04:38.068Z,16.70
2018-04-19T10:07:07.342Z,16.60
2018-04-19T10:09:36.648Z,16.50
2018-04-19T10:12:06.010Z,16.50
2018-04-19T10:14:35.377Z,16.40
2018-04-19T10:17:04.645Z,16.40
2018-04-19T10:19:34.052Z,16.30
2018-04-19T10:22:03.446Z,16.30
2018-04-19T10:24:32.736Z,16.30
2018-04-19T10:27:02.087Z,16.20
2018-04-19T10:29:31.440Z,16.20
2018-04-19T10:32:01.629Z,16.20
2018-04-19T10:34:31.063Z,16.20
2018-04-19T10:37:00.371Z,16.10
2018-04-19T10:39:29.911Z,16.10
2018-04-19T10:41:59.265Z,16.10
2018-04-19T10:44:28.604Z,16.20
2018-04-19T10:46:58.130Z,16.10
2018-04-19T10:49:27.431Z,16.10
2018-04-19T10:51:56.785Z,16.10
2018-04-19T10:54:26.195Z,16.10
2018-04-19T10:56:55.832Z,16.10
2018-04-19T10:59:25.237Z,16.00
2018-04-19T11:01:54.587Z,16.10
2018-04-19T11:04:23.897Z,16.10
2018-04-19T11:06:53.366Z,16.10
2018-04-19T11:09:22.723Z,16.20
2018-04-19T11:11:52.857Z,16.30
2018-04-19T11:14:22.216Z,16.20
2018-04-19T11:16:51.524Z,16.30
2018-04-19T11:19:20.872Z,16.30
2018-04-19T11:21:50.173Z,16.40
2018-04-19T11:24:19.484Z,16.30
2018-04-19T11:26:48.873Z,16.30
2018-04-19T11:29:18.155Z,16.20
2018-04-19T11:31:47.463Z,16.20
2018-04-19T11:34:16.815Z,16.10
2018-04-19T11:36:46.854Z,16.10
2018-04-19T11:39:16.564Z,16.00
2018-04-19T11:41:52.236Z,16.00
2018-04-19T11:44:21.839Z,16.00
2018-04-19T11:46:51.253Z,16.00
2018-04-19T11:49:20.668Z,15.90
2018-04-19T11:51:49.928Z,15.90
2018-04-19T11:54:19.352Z,15.90
2018-04-19T11:56:48.884Z,15.90
2018-04-19T11:59:18.268Z,16.00
2018-04-19T12:01:47.636Z,16.00
2018-04-19T12:04:17.049Z,16.00
2018-04-19T12:06:46.307Z,16.10
2018-04-19T12:09:15.757Z,16.10
2018-04-19T12:11:45.079Z,16.20
2018-04-19T12:14:19.720Z,16.20
2018-04-19T12:20:40.990Z,16.30
2018-04-19T12:23:12.534Z,16.50
2018-04-19T12:25:42.872Z,16.80
2018-04-19T12:28:12.437Z,16.70
2018-04-19T12:30:42.003Z,16.70
2018-04-19T12:33:11.897Z,16.70
2018-04-19T12:35:41.659Z,16.70
2018-04-19T12:38:11.395Z,16.80
2018-04-19T12:40:41.796Z,16.90
2018-04-19T12:43:12.027Z,16.80
2018-04-19T12:45:41.565Z,17.00
2018-04-19T12:48:15.648Z,17.10
2018-04-19T12:50:45.571Z,17.20
2018-04-19T12:53:15.170Z,17.40
2018-04-19T12:55:45.028Z,17.50
2018-04-19T12:58:14.583Z,17.60
2018-04-19T13:00:46.762Z,17.60
2018-04-19T13:04:04.412Z,17.90
2018-04-19T13:06:34.051Z,17.80
2018-04-19T13:09:03.404Z,17.80
2018-04-19T13:11:32.819Z,17.80
2018-04-19T13:14:02.297Z,17.90
2018-04-19T13:16:31.708Z,18.40
2018-04-19T13:19:01.085Z,18.80
2018-04-19T13:21:30.508Z,19.30
2018-04-19T13:24:00.193Z,19.70
2018-04-19T13:26:29.924Z,20.10
2018-04-19T13:28:59.481Z,20.50
2018-04-19T13:31:28.964Z,20.70
2018-04-19T13:33:58.546Z,21.10
2018-04-19T13:36:30.965Z,21.20
2018-04-19T13:39:01.205Z,21.20
2018-04-19T13:41:30.633Z,21.70
2018-04-19T13:44:00.165Z,21.90
2018-04-19T13:46:29.681Z,22.10
2018-04-19T13:48:59.911Z,22.00
2018-04-19T13:51:29.342Z,21.90
2018-04-19T13:53:58.899Z,22.00
2018-04-19T13:56:28.296Z,22.30
2018-04-19T13:58:58.801Z,22.40
2018-04-19T14:01:28.162Z,22.30
2018-04-19T14:03:59.585Z,22.40
2018-04-19T14:06:29.946Z,22.40
2018-04-19T14:09:00.187Z,22.50
2018-04-19T14:11:32.883Z,22.40
2018-04-19T14:14:03.018Z,22.40
2018-04-19T14:16:35.137Z,22.30
2018-04-19T14:19:09.004Z,22.50
2018-04-19T14:21:40.797Z,23.10
2018-04-19T14:26:52.059Z,23.80
2018-04-19T14:29:23.818Z,23.80
2018-04-19T14:31:55.480Z,23.50
2018-04-19T14:34:28.929Z,24.00
2018-04-19T14:36:59.542Z,24.00
2018-04-19T14:39:38.047Z,24.00
2018-04-19T14:42:08.572Z,24.10
2018-04-19T14:44:43.728Z,24.00
2018-04-19T14:47:15.152Z,24.00
2018-04-19T14:52:33.698Z,24.00
2018-04-19T14:58:25.104Z,24.50
2018-04-19T15:01:00.764Z,24.40
2018-04-19T15:03:32.903Z,24.00
2018-04-19T15:06:06.514Z,24.30
2018-04-19T15:08:37.219Z,24.40
2018-04-19T15:11:09.680Z,24.90
2018-04-19T15:13:40.294Z,25.00
2018-04-19T15:22:27.357Z,24.30
2018-04-19T15:25:05.667Z,24.60
2018-04-19T15:27:35.185Z,24.50
2018-04-19T15:30:07.359Z,24.90
2018-04-19T15:35:12.851Z,24.90
2018-04-19T15:37:47.204Z,24.10
2018-04-19T15:40:23.078Z,24.10
2018-04-19T15:42:54.493Z,24.60
2018-04-19T15:45:25.232Z,24.50
2018-04-19T15:47:56.412Z,24.80
2018-04-19T15:50:26.192Z,25.20
2018-04-19T15:52:55.570Z,25.30
2018-04-19T15:55:27.328Z,25.20
2018-04-19T15:57:58.419Z,24.90
2018-04-19T16:00:29.305Z,24.20
2018-04-19T16:03:00.517Z,23.90
2018-04-19T16:05:30.257Z,23.80
2018-04-19T16:08:02.971Z,24.20
2018-04-19T16:10:32.641Z,24.20
2018-04-19T16:13:04.831Z,24.80
2018-04-19T16:15:34.247Z,24.60
2018-04-19T16:18:04.431Z,24.30
2018-04-19T16:20:34.459Z,24.30
2018-04-19T16:23:05.295Z,24.50
2018-04-19T16:25:34.679Z,24.90
2018-04-19T16:28:04.722Z,25.80
2018-04-19T16:30:34.173Z,25.60
2018-04-19T16:33:03.874Z,25.10
2018-04-19T16:35:33.341Z,24.70
2018-04-19T16:38:02.940Z,24.50
2018-04-19T16:40:34.986Z,24.50
2018-04-19T16:43:04.539Z,24.50
2018-04-19T16:45:33.894Z,25.00
2018-04-19T16:48:03.597Z,25.70
2018-04-19T16:50:33.812Z,25.80
2018-04-19T16:53:04.559Z,26.00
2018-04-19T16:55:35.141Z,26.80
2018-04-19T16:58:04.781Z,27.40
2018-04-19T17:00:38.194Z,26.90
2018-04-19T17:03:12.302Z,26.80
2018-04-19T17:05:46.067Z,27.20
2018-04-19T17:08:16.671Z,27.40
2018-04-19T17:10:48.056Z,27.20
2018-04-19T17:13:18.120Z,27.30
2018-04-19T17:15:48.524Z,27.80
2018-04-19T17:18:19.123Z,27.60
2018-04-19T17:20:48.566Z,27.90
2018-04-19T17:23:18.922Z,27.40
2018-04-19T17:25:49.037Z,27.40
2018-04-19T17:28:23.733Z,27.70
2018-04-19T17:30:53.062Z,28.00
2018-04-19T17:33:23.018Z,28.40
2018-04-19T17:35:52.798Z,28.60
2018-04-19T17:38:22.202Z,28.60
2018-04-19T17:40:51.597Z,28.50
2018-04-19T17:43:21.782Z,28.40
2018-04-19T17:45:52.743Z,28.40
2018-04-19T17:48:22.503Z,28.30
2018-04-19T17:50:54.646Z,28.30
2018-04-19T17:53:24.410Z,28.40
2018-04-19T17:55:54.427Z,28.70
2018-04-19T17:58:26.089Z,28.80
2018-04-19T18:00:57.043Z,29.00
2018-04-19T18:03:26.916Z,28.40
2018-04-19T18:05:56.326Z,28.70
2018-04-19T18:08:27.514Z,28.90
2018-04-19T18:10:58.149Z,29.10
2018-04-19T18:13:29.662Z,28.80
2018-04-19T18:16:00.040Z,28.30
2018-04-19T18:18:34.721Z,28.50
2018-04-19T18:21:05.981Z,28.40
2018-04-19T18:23:35.385Z,28.50
2018-04-19T18:26:08.723Z,28.40
2018-04-19T18:28:39.285Z,28.70
2018-04-19T18:31:18.600Z,29.00
2018-04-19T18:33:49.886Z,28.90
2018-04-19T18:36:19.476Z,29.40
2018-04-19T18:38:52.070Z,29.40
2018-04-19T18:41:25.910Z,29.40
2018-04-19T18:43:55.613Z,29.10
2018-04-19T18:46:34.136Z,28.80
2018-04-19T18:51:39.895Z,29.20
2018-04-19T18:54:11.416Z,29.20
2018-04-19T18:56:43.805Z,29.00
2018-04-19T18:59:13.962Z,29.20
2018-04-19T19:01:45.592Z,29.20
2018-04-19T19:04:17.922Z,29.30
2018-04-19T19:06:47.527Z,29.70
2018-04-19T19:09:16.975Z,29.70
2018-04-19T19:11:47.970Z,29.30
2018-04-19T19:14:17.332Z,29.30
2018-04-19T19:16:49.320Z,29.60
2018-04-19T19:19:32.635Z,29.20
2018-04-19T19:22:02.152Z,29.20
2018-04-19T19:24:32.809Z,29.60
2018-04-19T19:27:02.757Z,28.70
2018-04-19T19:29:33.087Z,28.30
2018-04-19T19:32:05.865Z,28.20
2018-04-19T19:34:37.530Z,28.20
2018-04-19T19:37:07.849Z,28.40
2018-04-19T19:39:37.756Z,28.90
2018-04-19T19:42:11.633Z,28.60
2018-04-19T19:44:43.688Z,28.60
2018-04-19T19:47:14.216Z,28.60
2018-04-19T19:49:43.973Z,28.60
2018-04-19T19:52:16.058Z,28.90
2018-04-19T19:54:46.384Z,28.80
2018-04-19T19:57:17.442Z,28.60
2018-04-19T19:59:46.868Z,28.60
2018-04-19T20:03:04.471Z,28.80
2018-04-19T20:05:34.281Z,28.70
2018-04-19T20:08:07.178Z,29.30
2018-04-19T20:10:37.495Z,29.20
2018-04-19T20:13:07.591Z,28.80
2018-04-19T20:18:14.405Z,28.80
2018-04-19T20:20:53.203Z,28.60
2018-04-19T20:23:23.047Z,28.50
2018-04-19T20:25:55.315Z,28.50
2018-04-19T20:28:32.195Z,28.60
2018-04-19T20:31:04.639Z,28.40
2018-04-19T20:33:37.327Z,27.70
2018-04-19T20:36:08.725Z,27.60
2018-04-19T20:38:40.199Z,27.50
2018-04-19T20:41:10.146Z,27.50
2018-04-19T20:43:40.330Z,27.60
2018-04-19T20:46:11.541Z,27.90
2018-04-19T20:48:41.324Z,28.10
2018-04-19T20:57:19.046Z,28.50
2018-04-19T20:59:49.292Z,28.50
2018-04-19T21:02:25.354Z,28.30
2018-04-19T21:04:55.409Z,28.30
2018-04-19T21:07:25.568Z,28.00
2018-04-19T21:09:55.066Z,28.30
2018-04-19T21:12:24.669Z,28.30
2018-04-19T21:15:00.871Z,27.90
2018-04-19T21:17:30.432Z,27.10
2018-04-19T21:20:02.275Z,26.70
2018-04-19T21:22:31.900Z,26.80
2018-04-19T21:25:06.026Z,27.20
2018-04-19T21:27:35.473Z,27.10
2018-04-19T21:30:04.932Z,26.90
2018-04-19T21:32:36.498Z,26.70
2018-04-19T21:35:23.121Z,26.90
2018-04-19T21:38:44.630Z,27.00
2018-04-19T21:41:16.890Z,26.60
2018-04-19T21:43:48.428Z,26.90
2018-04-19T21:46:18.689Z,27.10
2018-04-19T21:48:48.884Z,27.30
2018-04-19T21:51:18.955Z,27.10
2018-04-19T21:53:48.934Z,26.70
2018-04-19T21:56:18.496Z,26.20
2018-04-19T21:58:49.259Z,25.90
2018-04-19T22:01:21.240Z,25.60
2018-04-19T22:03:50.620Z,25.60
2018-04-19T22:06:20.105Z,25.80
2018-04-19T22:08:53.578Z,26.30
2018-04-19T22:11:26.921Z,26.20
2018-04-19T22:13:56.393Z,26.00
2018-04-19T22:16:26.701Z,25.60
2018-04-19T22:18:56.123Z,25.10
2018-04-19T22:21:25.469Z,24.80
2018-04-19T22:23:55.815Z,24.80
2018-04-19T22:26:25.171Z,24.90
2018-04-19T22:28:54.504Z,25.10
2018-04-19T22:31:27.552Z,24.90
2018-04-19T22:33:56.850Z,24.60
2018-04-19T22:36:28.286Z,24.30
2018-04-19T22:38:57.701Z,23.90
2018-04-19T22:41:27.090Z,23.80
2018-04-19T22:43:57.202Z,23.70
2018-04-19T22:46:27.011Z,23.50
2018-04-19T22:48:57.105Z,23.30
2018-04-19T22:51:26.597Z,23.30
2018-04-19T22:53:56.769Z,23.10
2018-04-19T22:56:26.090Z,23.00
2018-04-19T22:58:57.555Z,23.00
2018-04-19T23:01:27.666Z,22.70
2018-04-19T23:03:57.854Z,22.50
2018-04-19T23:06:28.959Z,22.40
2018-04-19T23:08:58.375Z,22.30
2018-04-19T23:11:27.709Z,22.10
2018-04-19T23:13:57.105Z,21.90
2018-04-19T23:16:26.539Z,21.80
2018-04-19T23:18:55.895Z,21.70
2018-04-19T23:21:29.196Z,21.70
2018-04-19T23:23:58.539Z,21.80
2018-04-19T23:26:37.923Z,21.70
2018-04-19T23:29:08.685Z,21.70
2018-04-19T23:31:39.271Z,21.50
2018-04-19T23:34:08.624Z,21.40
2018-04-19T23:39:59.422Z,21.20
2018-04-19T23:42:31.792Z,21.20
2018-04-19T23:45:02.912Z,21.10
2018-04-19T23:47:33.328Z,21.20
2018-04-19T23:50:03.196Z,21.20
2018-04-19T23:52:43.489Z,21.10
2018-04-19T23:55:13.587Z,21.00
2018-04-19T23:58:23.605Z,21.00
